This is the latest recevied weather packets stored in our database for station/object HB9TVK-13. If no packets are shown the sender has not sent any weather packets the latest 10 day(s).
| Time | Temp. | Humidity | Pressure | Rain* | Wind** | Luminosity | Snow |
|---|---|---|---|---|---|---|---|
| 1777823837 | 14.44° C | 80% | 1016.6 hPa | 2.29 mm | - | - | - |
| 1777823237 | 14.44° C | 77% | 1016.6 hPa | 2.29 mm | - | - | - |
| 1777822635 | 15° C | 76% | 1016.5 hPa | 2.29 mm | - | - | - |
| 1777822036 | 16.11° C | 70% | 1015.8 hPa | 2.29 mm | - | - | - |
| 1777821436 | 18.33° C | 65% | 1016.1 hPa | 1.52 mm | - | - | - |
| 1777820836 | 20° C | 52% | 1015.7 hPa | 0 mm | - | - | - |
| 1777820237 | 21.11° C | 48% | 1015.2 hPa | 0 mm | - | - | - |
| 1777819637 | 22.78° C | 45% | 1015.1 hPa | 0 mm | - | - | - |
| 1777819038 | 23.33° C | 40% | 1015 hPa | 0 mm | - | - | - |
| 1777818436 | 23.89° C | 40% | 1015 hPa | 0 mm | - | - | - |
| 1777817836 | 23.89° C | 39% | 1015 hPa | 0 mm | - | - | - |
| 1777817236 | 24.44° C | 38% | 1015 hPa | 0 mm | - | - | - |
| 1777816636 | 23.89° C | 39% | 1015.1 hPa | 0 mm | - | - | - |
| 1777816036 | 24.44° C | 39% | 1015.1 hPa | 0 mm | - | - | - |
| 1777815438 | 23.33° C | 40% | 1015.2 hPa | 0 mm | - | - | - |
| 1777814838 | 23.33° C | 41% | 1015.4 hPa | 0 mm | - | - | - |
| 1777814236 | 22.78° C | 44% | 1015.4 hPa | 0 mm | - | - | - |
| 1777813636 | 23.33° C | 44% | 1015.5 hPa | 0 mm | - | - | - |
| 1777813036 | 23.33° C | 43% | 1015.6 hPa | 0 mm | - | - | - |
| 1777812436 | 23.89° C | 42% | 1015.6 hPa | 0 mm | - | - | - |
| 1777811837 | 23.33° C | 40% | 1015.8 hPa | 0 mm | - | - | - |
| 1777811237 | 23.33° C | 42% | 1015.8 hPa | 0 mm | - | - | - |
| 1777810637 | 22.78° C | 43% | 1015.9 hPa | 0 mm | - | - | - |
| 1777810035 | 22.78° C | 46% | 1015.9 hPa | 0 mm | - | - | - |
| 1777809436 | 21.67° C | 47% | 1016 hPa | 0 mm | - | - | - |
* Rain latest hour (hover to see other rain measurements)
** Current wind speed in m/s (hover to see current wind gust speed)